createdAt,value
2023-02-18T00:01:30.687Z,7.26
2023-02-18T00:03:58.967Z,7.28
2023-02-18T00:06:29.383Z,7.33
2023-02-18T00:08:59.036Z,7.43
2023-02-18T00:11:26.415Z,7.51
2023-02-18T00:13:59.156Z,7.54
2023-02-18T00:16:27.739Z,7.56
2023-02-18T00:19:01.729Z,7.56
2023-02-18T00:21:28.904Z,7.56
2023-02-18T00:23:55.958Z,7.53
2023-02-18T00:26:23.441Z,7.50
2023-02-18T00:28:52.021Z,7.50
2023-02-18T00:31:29.247Z,7.47
2023-02-18T00:33:58.289Z,7.40
2023-02-18T00:36:28.517Z,7.35
2023-02-18T00:38:59.780Z,7.33
2023-02-18T00:41:28.948Z,7.30
2023-02-18T00:43:56.558Z,7.24
2023-02-18T00:46:24.752Z,7.18
2023-02-18T00:48:53.918Z,7.09
2023-02-18T00:51:21.579Z,7.06
2023-02-18T00:53:49.043Z,7.07
2023-02-18T00:56:15.997Z,7.03
2023-02-18T00:58:43.253Z,6.98
2023-02-18T01:01:11.128Z,6.98
2023-02-18T01:03:41.068Z,6.95
2023-02-18T01:06:09.431Z,6.93
2023-02-18T01:08:37.403Z,6.90
2023-02-18T01:11:05.892Z,6.88
2023-02-18T01:13:33.870Z,6.85
2023-02-18T01:16:00.782Z,6.79
2023-02-18T01:18:30.453Z,6.76
2023-02-18T01:20:58.211Z,6.70
2023-02-18T01:23:25.142Z,6.67
2023-02-18T01:25:52.507Z,6.65
2023-02-18T01:28:21.267Z,6.68
2023-02-18T01:30:48.248Z,6.73
2023-02-18T01:33:15.303Z,6.77
2023-02-18T01:35:42.258Z,6.76
2023-02-18T01:38:10.030Z,6.76
2023-02-18T01:40:44.951Z,6.75
2023-02-18T01:43:13.639Z,6.68
2023-02-18T01:46:12.868Z,6.64
2023-02-18T01:48:57.079Z,6.58
2023-02-18T01:51:48.952Z,6.51
2023-02-18T01:54:39.884Z,6.46
2023-02-18T01:57:10.929Z,6.45
2023-02-18T01:59:41.527Z,6.47
2023-02-18T02:02:13.590Z,6.48
2023-02-18T02:04:41.710Z,6.47
2023-02-18T02:07:09.985Z,6.46
2023-02-18T02:09:39.396Z,6.48
2023-02-18T02:12:25.078Z,6.52
2023-02-18T02:15:10.401Z,6.56
2023-02-18T02:17:58.749Z,6.54
2023-02-18T02:20:58.066Z,6.52
2023-02-18T02:23:49.484Z,6.52
2023-02-18T02:26:41.397Z,6.52
2023-02-18T02:29:51.945Z,6.51
2023-02-18T02:32:36.807Z,6.48
2023-02-18T02:35:12.247Z,6.47
2023-02-18T02:38:05.186Z,6.46
2023-02-18T02:40:47.078Z,6.46
2023-02-18T02:43:34.934Z,6.43
2023-02-18T02:46:19.969Z,6.39
2023-02-18T02:48:47.025Z,6.37
2023-02-18T02:51:30.349Z,6.38
2023-02-18T02:54:12.136Z,6.35
2023-02-18T02:56:38.989Z,6.30
2023-02-18T02:59:13.291Z,6.28
2023-02-18T03:02:12.496Z,6.28
2023-02-18T03:04:46.167Z,6.29
2023-02-18T03:07:20.206Z,6.28
2023-02-18T03:09:53.197Z,6.25
2023-02-18T03:12:46.967Z,6.23
2023-02-18T03:18:15.161Z,6.22
2023-02-18T03:20:57.331Z,6.19
2023-02-18T03:23:33.007Z,6.15
2023-02-18T03:26:00.949Z,6.14
2023-02-18T03:28:32.366Z,6.14
2023-02-18T03:31:15.424Z,6.09
2023-02-18T03:33:51.401Z,6.04
2023-02-18T03:36:21.428Z,6.02
2023-02-18T03:39:00.147Z,6.03
2023-02-18T03:41:27.666Z,6.00
2023-02-18T03:44:00.727Z,5.95
2023-02-18T03:46:29.484Z,5.88
2023-02-18T03:48:56.800Z,5.82
2023-02-18T03:51:29.428Z,5.79
2023-02-18T03:53:56.323Z,5.76
2023-02-18T03:56:23.807Z,5.75
2023-02-18T03:58:50.650Z,5.75
2023-02-18T04:01:17.649Z,5.74
2023-02-18T04:03:44.478Z,5.74
2023-02-18T04:06:11.298Z,5.74
2023-02-18T04:08:38.104Z,5.73
2023-02-18T04:11:05.643Z,5.72
2023-02-18T04:13:32.703Z,5.73
2023-02-18T04:15:59.629Z,5.74
2023-02-18T04:18:26.632Z,5.72
2023-02-18T04:20:53.589Z,5.65
2023-02-18T04:23:20.698Z,5.63
2023-02-18T04:25:48.774Z,5.64
2023-02-18T04:28:17.044Z,5.62
2023-02-18T04:30:45.328Z,5.58
2023-02-18T04:33:12.770Z,5.53
2023-02-18T04:35:42.052Z,5.51
2023-02-18T04:38:10.493Z,5.56
2023-02-18T04:40:37.507Z,5.58
2023-02-18T04:43:04.537Z,5.56
2023-02-18T04:45:31.453Z,5.54
2023-02-18T04:47:58.519Z,5.52
2023-02-18T04:50:25.367Z,5.47
2023-02-18T04:52:52.299Z,5.43
2023-02-18T04:55:19.281Z,5.45
2023-02-18T04:57:46.151Z,5.46
2023-02-18T05:00:16.751Z,5.48
2023-02-18T05:02:44.204Z,5.48
2023-02-18T05:05:11.898Z,5.48
2023-02-18T05:07:39.217Z,5.47
2023-02-18T05:10:06.865Z,5.47
2023-02-18T05:12:33.650Z,5.48
2023-02-18T05:15:00.522Z,5.47
2023-02-18T05:17:27.301Z,5.46
2023-02-18T05:19:54.105Z,5.48
2023-02-18T05:22:20.955Z,5.49
2023-02-18T05:24:47.775Z,5.50
2023-02-18T05:27:14.629Z,5.48
2023-02-18T05:29:41.541Z,5.47
2023-02-18T05:32:08.444Z,5.46
2023-02-18T05:34:35.297Z,5.46
2023-02-18T05:37:02.182Z,5.47
2023-02-18T05:39:29.123Z,5.46
2023-02-18T05:41:55.872Z,5.43
2023-02-18T05:44:32.193Z,5.42
2023-02-18T05:47:11.630Z,5.40
2023-02-18T05:49:40.796Z,5.38
2023-02-18T05:52:08.732Z,5.37
2023-02-18T05:54:36.832Z,5.35
2023-02-18T05:57:04.056Z,5.34
2023-02-18T05:59:31.247Z,5.35
2023-02-18T06:01:58.086Z,5.36
2023-02-18T06:04:25.312Z,5.33
2023-02-18T06:06:52.253Z,5.31
2023-02-18T06:09:19.095Z,5.29
2023-02-18T06:11:46.116Z,5.30
2023-02-18T06:14:12.999Z,5.31
2023-02-18T06:16:39.870Z,5.30
2023-02-18T06:19:06.777Z,5.28
2023-02-18T06:21:33.803Z,5.27
2023-02-18T06:24:00.791Z,5.29
2023-02-18T06:26:27.707Z,5.33
2023-02-18T06:28:54.591Z,5.34
2023-02-18T06:31:21.965Z,5.34
2023-02-18T06:33:48.853Z,5.35
2023-02-18T06:36:16.158Z,5.38
2023-02-18T06:38:44.652Z,5.38
2023-02-18T06:41:13.914Z,5.38
2023-02-18T06:43:42.222Z,5.38
2023-02-18T06:46:09.590Z,5.38
2023-02-18T06:48:36.805Z,5.38
2023-02-18T06:51:04.660Z,5.38
2023-02-18T06:53:31.597Z,5.41
2023-02-18T06:55:58.477Z,5.42
2023-02-18T06:58:25.782Z,5.45
2023-02-18T07:00:52.664Z,5.48
2023-02-18T12:23:18.118Z,7.14
2023-02-18T12:26:03.903Z,7.24
2023-02-18T12:28:36.972Z,7.14
2023-02-18T12:31:10.231Z,7.03
2023-02-18T12:33:46.428Z,6.97
2023-02-18T12:36:44.384Z,6.90
2023-02-18T12:39:22.487Z,6.87
2023-02-18T12:42:20.674Z,6.83
2023-02-18T12:45:10.319Z,6.76
2023-02-18T12:47:56.326Z,6.73
2023-02-18T12:50:41.075Z,6.68
2023-02-18T12:53:23.131Z,6.66
2023-02-18T12:56:12.621Z,6.63
2023-02-18T12:58:59.949Z,6.62
2023-02-18T13:01:37.429Z,6.63
2023-02-18T13:04:29.290Z,6.64
2023-02-18T13:07:08.467Z,6.68
2023-02-18T13:09:43.717Z,6.79
2023-02-18T13:12:46.252Z,6.90
2023-02-18T13:15:25.719Z,6.92
2023-02-18T13:18:04.273Z,6.92
2023-02-18T13:20:40.484Z,6.88
2023-02-18T13:23:16.438Z,6.87
2023-02-18T13:25:43.661Z,6.92
2023-02-18T13:28:32.364Z,7.00
2023-02-18T13:31:19.959Z,7.07
2023-02-18T13:34:17.513Z,7.16
2023-02-18T13:37:39.017Z,7.17
2023-02-18T13:40:19.163Z,7.09
2023-02-18T13:42:46.113Z,7.00
2023-02-18T13:45:31.672Z,6.89
2023-02-18T13:47:59.893Z,6.80
2023-02-18T13:50:41.437Z,6.73
2023-02-18T13:53:08.232Z,6.67
2023-02-18T13:55:42.246Z,6.61
2023-02-18T13:58:21.959Z,6.56
2023-02-18T14:00:54.327Z,6.53
2023-02-18T14:03:39.363Z,6.52
2023-02-18T14:06:18.676Z,6.49
2023-02-18T14:08:46.306Z,6.49
2023-02-18T14:11:13.132Z,6.50
2023-02-18T14:14:14.150Z,6.51
2023-02-18T14:17:13.445Z,6.51
2023-02-18T14:19:41.030Z,6.50
2023-02-18T14:22:32.779Z,6.48
2023-02-18T14:25:08.678Z,6.46
2023-02-18T14:27:37.883Z,6.45
2023-02-18T14:30:22.512Z,6.44
2023-02-18T14:32:52.012Z,6.40
2023-02-18T14:35:37.923Z,6.36
2023-02-18T14:38:39.793Z,6.32
2023-02-18T14:41:17.334Z,6.25
2023-02-18T14:44:10.921Z,6.22
2023-02-18T14:47:06.331Z,6.20
2023-02-18T14:49:54.522Z,6.19
2023-02-18T14:52:27.547Z,6.17
2023-02-18T14:54:55.525Z,6.15
2023-02-18T14:57:33.320Z,6.12
2023-02-18T15:00:00.585Z,6.12
2023-02-18T15:02:31.132Z,6.12
2023-02-18T15:05:20.885Z,6.12
2023-02-18T15:08:15.063Z,6.08
2023-02-18T15:10:47.708Z,6.05
2023-02-18T15:13:20.037Z,6.01
2023-02-18T15:15:51.910Z,5.96
2023-02-18T15:18:26.986Z,5.89
2023-02-18T15:20:55.088Z,5.79
2023-02-18T15:23:22.659Z,5.67
2023-02-18T15:25:53.804Z,5.58
2023-02-18T15:28:33.119Z,5.53
2023-02-18T15:31:03.227Z,5.50
2023-02-18T15:33:30.667Z,5.45
2023-02-18T15:36:06.852Z,5.37
2023-02-18T15:38:34.233Z,5.27
2023-02-18T15:41:01.719Z,5.15
2023-02-18T15:43:29.118Z,5.01
2023-02-18T15:45:59.583Z,4.86
2023-02-18T15:48:36.180Z,4.73
2023-02-18T15:51:17.685Z,4.66
2023-02-18T15:53:49.242Z,4.60
2023-02-18T15:56:29.881Z,4.57
2023-02-18T15:59:09.352Z,4.53
2023-02-18T16:01:36.726Z,4.48
2023-02-18T16:04:07.470Z,4.45
2023-02-18T16:06:40.030Z,4.39
2023-02-18T16:09:18.499Z,4.35
2023-02-18T16:11:50.364Z,4.35
2023-02-18T16:14:28.828Z,4.33
2023-02-18T16:17:18.957Z,4.28
2023-02-18T16:20:03.437Z,4.22
2023-02-18T16:22:34.636Z,4.19
2023-02-18T16:25:13.885Z,4.13
2023-02-18T16:28:17.038Z,4.10
2023-02-18T16:30:46.441Z,4.05
2023-02-18T16:33:14.150Z,4.05
2023-02-18T16:35:49.585Z,4.08
2023-02-18T16:38:25.068Z,4.09
2023-02-18T16:40:54.927Z,4.11
2023-02-18T16:43:24.730Z,4.08
2023-02-18T16:45:54.148Z,4.07
2023-02-18T16:48:28.293Z,4.06
2023-02-18T16:50:56.030Z,4.04
2023-02-18T16:53:23.931Z,4.01
2023-02-18T16:55:53.537Z,3.96
2023-02-18T16:58:20.721Z,3.90
2023-02-18T17:00:50.459Z,3.85
2023-02-18T17:03:17.773Z,3.81
2023-02-18T17:05:45.029Z,3.78
2023-02-18T17:08:14.825Z,3.78
2023-02-18T17:10:42.287Z,3.79
2023-02-18T17:13:20.865Z,3.82
2023-02-18T17:15:50.214Z,3.87
2023-02-18T17:18:17.599Z,3.90
2023-02-18T17:20:45.433Z,3.91
2023-02-18T17:23:16.084Z,3.90
2023-02-18T17:25:43.530Z,3.88
2023-02-18T17:28:10.468Z,3.89
2023-02-18T17:30:40.281Z,3.90
2023-02-18T17:33:09.013Z,3.92
2023-02-18T17:35:41.333Z,3.91
2023-02-18T17:38:17.289Z,3.89
2023-02-18T17:40:45.613Z,3.85
2023-02-18T17:43:15.475Z,3.81
2023-02-18T17:45:50.039Z,3.76
2023-02-18T17:48:17.029Z,3.70
2023-02-18T17:50:44.342Z,3.67
2023-02-18T17:53:16.145Z,3.65
2023-02-18T17:55:44.733Z,3.63
2023-02-18T17:58:12.890Z,3.61
2023-02-18T18:00:43.796Z,3.60
2023-02-18T18:03:13.052Z,3.58
2023-02-18T18:05:41.802Z,3.56
2023-02-18T18:08:09.903Z,3.55
2023-02-18T18:10:40.614Z,3.55
2023-02-18T18:13:20.607Z,3.56
2023-02-18T18:15:48.023Z,3.55
2023-02-18T18:18:15.289Z,3.55
2023-02-18T18:20:46.242Z,3.55
2023-02-18T18:23:17.727Z,3.55
2023-02-18T18:25:49.478Z,3.55
2023-02-18T18:28:16.347Z,3.52
2023-02-18T18:30:46.096Z,3.52
2023-02-18T18:33:15.745Z,3.52
2023-02-18T18:35:44.145Z,3.50
2023-02-18T18:38:11.001Z,3.49
2023-02-18T18:40:37.936Z,3.50
2023-02-18T18:43:07.855Z,3.49
2023-02-18T18:45:37.414Z,3.47
2023-02-18T18:48:07.455Z,3.45
2023-02-18T18:50:34.379Z,3.47
2023-02-18T18:53:01.565Z,3.46
2023-02-18T18:55:32.607Z,3.45
2023-02-18T18:57:59.794Z,3.45
2023-02-18T19:00:33.361Z,3.44
2023-02-18T19:03:00.285Z,3.41
2023-02-18T19:05:33.084Z,3.35
2023-02-18T19:08:00.142Z,3.29
2023-02-18T19:10:30.314Z,3.27
2023-02-18T19:13:03.076Z,3.25
2023-02-18T19:15:30.442Z,3.21
2023-02-18T19:17:58.000Z,3.18
2023-02-18T19:20:29.125Z,3.13
2023-02-18T19:22:56.577Z,3.10
2023-02-18T19:25:23.556Z,3.10
2023-02-18T19:27:51.482Z,3.12
2023-02-18T19:30:25.289Z,3.16
2023-02-18T19:32:54.839Z,3.20
2023-02-18T19:35:22.729Z,3.24
2023-02-18T19:37:49.612Z,3.26
2023-02-18T19:40:22.016Z,3.29
2023-02-18T19:42:49.386Z,3.33
2023-02-18T19:45:18.383Z,3.36
2023-02-18T19:47:45.816Z,3.40
2023-02-18T19:50:16.897Z,3.44
2023-02-18T19:52:43.935Z,3.48
2023-02-18T19:55:10.941Z,3.51
2023-02-18T19:57:38.041Z,3.57
2023-02-18T20:00:09.021Z,3.61
2023-02-18T20:02:42.611Z,3.65
2023-02-18T20:05:11.380Z,3.67
2023-02-18T20:07:40.044Z,3.69
2023-02-18T20:10:09.085Z,3.71
2023-02-18T20:12:36.031Z,3.69
2023-02-18T20:15:04.278Z,3.70
2023-02-18T20:17:31.309Z,3.73
2023-02-18T20:19:58.150Z,3.73
2023-02-18T20:22:25.510Z,3.72
2023-02-18T20:24:52.508Z,3.75
2023-02-18T20:27:19.332Z,3.79
2023-02-18T20:29:46.443Z,3.83
2023-02-18T20:32:13.418Z,3.87
2023-02-18T20:34:40.474Z,3.90
2023-02-18T20:37:07.572Z,3.91
2023-02-18T20:39:34.531Z,3.91
2023-02-18T20:42:11.091Z,3.92
2023-02-18T20:44:41.697Z,3.93
2023-02-18T20:47:08.652Z,3.94
2023-02-18T20:49:35.776Z,3.92
2023-02-18T20:52:02.875Z,3.92
2023-02-18T20:54:30.046Z,3.92
2023-02-18T20:56:56.912Z,3.93
2023-02-18T20:59:24.241Z,3.97
2023-02-18T21:01:51.266Z,3.96
2023-02-18T21:04:20.275Z,3.88
2023-02-18T21:06:47.648Z,3.85
2023-02-18T21:09:16.098Z,3.85
2023-02-18T21:11:44.486Z,3.86
2023-02-18T21:14:11.737Z,3.86
2023-02-18T21:16:39.161Z,3.88
2023-02-18T21:19:13.342Z,3.90
2023-02-18T21:21:41.037Z,3.90
2023-02-18T21:24:08.790Z,3.89
2023-02-18T21:26:36.101Z,3.88
2023-02-18T21:29:06.984Z,3.89
2023-02-18T21:31:39.847Z,3.89
2023-02-18T21:34:08.569Z,3.88
2023-02-18T21:36:35.781Z,3.89
2023-02-18T21:39:05.356Z,3.90
2023-02-18T21:41:34.411Z,3.91
2023-02-18T21:44:01.664Z,3.93
2023-02-18T21:46:35.394Z,3.93
2023-02-18T21:49:12.724Z,3.90
2023-02-18T21:51:56.623Z,3.85
2023-02-18T21:54:30.216Z,3.73
2023-02-18T21:56:58.784Z,3.61
2023-02-18T21:59:27.816Z,3.49
2023-02-18T22:01:55.580Z,3.35
2023-02-18T22:04:23.630Z,3.23
2023-02-18T22:06:50.644Z,3.16
2023-02-18T22:09:17.758Z,3.08
2023-02-18T22:11:44.761Z,3.00
2023-02-18T22:14:14.817Z,2.95
2023-02-18T22:16:42.212Z,2.88
2023-02-18T22:19:11.524Z,2.89
2023-02-18T22:21:38.798Z,2.93
2023-02-18T22:24:07.025Z,2.99
2023-02-18T22:26:34.534Z,3.04
2023-02-18T22:29:01.595Z,3.09
2023-02-18T22:31:30.989Z,3.15
2023-02-18T22:34:00.012Z,3.21
2023-02-18T22:36:28.341Z,3.24
2023-02-18T22:38:56.541Z,3.24
2023-02-18T22:41:24.950Z,3.24
2023-02-18T22:43:56.785Z,3.25
2023-02-18T22:46:28.717Z,3.26
2023-02-18T22:48:56.929Z,3.25
2023-02-18T22:51:29.756Z,3.24
2023-02-18T22:53:58.736Z,3.27
2023-02-18T22:56:27.827Z,3.29
2023-02-18T22:58:56.957Z,3.30
2023-02-18T23:01:29.849Z,3.29
2023-02-18T23:03:58.806Z,3.29
2023-02-18T23:06:25.670Z,3.32
2023-02-18T23:08:54.013Z,3.31
2023-02-18T23:11:22.088Z,3.31
2023-02-18T23:14:09.744Z,3.34
2023-02-18T23:16:57.613Z,3.34
2023-02-18T23:19:26.735Z,3.31
2023-02-18T23:21:54.309Z,3.30
2023-02-18T23:24:22.053Z,3.30
2023-02-18T23:26:49.655Z,3.30
2023-02-18T23:29:17.227Z,3.27
2023-02-18T23:31:44.662Z,3.23
2023-02-18T23:34:14.962Z,3.19
2023-02-18T23:36:43.300Z,3.15
2023-02-18T23:39:13.778Z,3.13
2023-02-18T23:41:41.081Z,3.12
2023-02-18T23:44:12.536Z,3.11
2023-02-18T23:46:40.164Z,3.11
2023-02-18T23:49:07.809Z,3.11
2023-02-18T23:51:34.872Z,3.09
2023-02-18T23:54:05.162Z,3.06
2023-02-18T23:56:33.335Z,3.05
2023-02-18T23:59:02.326Z,3.03
